• Join FlightAware (Why Join?)
  • Login
  • US Flag 
10:11AM EDT


 

Airport Tracker/Info


-or-


 

Live Flight TrackerFlight Track Log ✈ BLF703 ✈ 26-Feb-2012 ✈ EFHK / HEL - LSZH / ZRH

Flight Track Log - Related Links

Times and Time Zones

All times are in EST time to prevent confusion due to time zone crossing. See the BLF703 flight status page for this flight to view local times or setup timezone preferences in your user account.

Time Position Orientation Groundspeed Altitude Reporting Facility
EST Latitude Longitude Course Direction KTS MPH feet Rate Location/Type
03:21AM 60.2464 24.8261 224° Southwest  Level Estimated
03:22AM 60.1595 24.6590 224° Southwest  Level Estimated
03:23AM 60.0724 24.4927 223° Southwest  Level Estimated
03:24AM 59.9851 24.3272 223° Southwest  Level Estimated
03:25AM 59.8975 24.1627 223° Southwest  Level Estimated
03:26AM 59.8098 23.9990 223° Southwest  Level Estimated
03:27AM 59.7219 23.8362 223° Southwest  Level Estimated
03:28AM 59.6337 23.6742 223° Southwest  Level Estimated
03:29AM 59.5454 23.5131 223° Southwest  Level Estimated
03:30AM 59.4569 23.3528 223° Southwest  Level Estimated
03:31AM 59.3681 23.1934 222° Southwest  Level Estimated
03:32AM 59.2792 23.0348 222° Southwest  Level Estimated
03:33AM 59.1901 22.8770 222° Southwest  Level Estimated
03:34AM 59.1008 22.7200 222° Southwest  Level Estimated
03:35AM 59.0113 22.5639 222° Southwest  Level Estimated
03:36AM 58.9216 22.4086 222° Southwest  Level Estimated
03:37AM 58.8318 22.2540 222° Southwest  Level Estimated
03:38AM 58.7417 22.1003 221° Southwest  Level Estimated
03:39AM 58.6515 21.9474 221° Southwest  Level Estimated
03:40AM 58.5611 21.7952 221° Southwest  Level Estimated
03:41AM 58.4705 21.6439 221° Southwest  Level Estimated
03:42AM 58.3797 21.4933 221° Southwest  Level Estimated
03:43AM 58.2888 21.3435 221° Southwest  Level Estimated
03:44AM 58.1977 21.1945 221° Southwest  Level Estimated
03:45AM 58.1064 21.0462 221° Southwest  Level Estimated
03:46AM 58.0149 20.8987 220° Southwest  Level Estimated
03:47AM 57.9233 20.7519 220° Southwest  Level Estimated
03:48AM 57.8315 20.6059 220° Southwest  Level Estimated
03:49AM 57.7396 20.4606 220° Southwest  Level Estimated
03:50AM 57.6474 20.3161 220° Southwest  Level Estimated
03:51AM 57.5551 20.1723 220° Southwest  Level Estimated
03:52AM 57.4627 20.0292 220° Southwest  Level Estimated
03:53AM 57.3701 19.8869 220° Southwest  Level Estimated
03:54AM 57.2773 19.7453 219° Southwest  Level Estimated
03:55AM 57.1843 19.6043 219° Southwest  Level Estimated
03:56AM 57.0913 19.4641 219° Southwest  Level Estimated
03:57AM 56.9980 19.3246 219° Southwest  Level Estimated
03:58AM 56.9046 19.1858 219° Southwest  Level Estimated
03:59AM 56.8111 19.0477 219° Southwest  Level Estimated
04:00AM 56.7174 18.9102 219° Southwest  Level Estimated
04:01AM 56.6235 18.7735 219° Southwest  Level Estimated
04:02AM 56.5295 18.6374 219° Southwest  Level Estimated
04:03AM 56.4353 18.5020 218° Southwest  Level Estimated
04:04AM 56.3410 18.3673 218° Southwest  Level Estimated
04:05AM 56.2466 18.2333 218° Southwest  Level Estimated
04:06AM 56.1520 18.0999 218° Southwest  Level Estimated
04:07AM 56.0573 17.9671 218° Southwest  Level Estimated
04:08AM 55.9624 17.8350 218° Southwest  Level Estimated
04:09AM 55.8674 17.7036 218° Southwest  Level Estimated
04:10AM 55.7722 17.5728 218° Southwest  Level Estimated
04:11AM 55.6769 17.4426 218° Southwest  Level Estimated
04:12AM 55.5815 17.3131 217° Southwest  Level Estimated
04:13AM 55.4859 17.1842 217° Southwest  Level Estimated
04:14AM 55.3902 17.0559 217° Southwest  Level Estimated
04:15AM 55.2944 16.9282 217° Southwest  Level Estimated
04:16AM 55.1984 16.8012 217° Southwest  Level Estimated
04:17AM 55.1023 16.6747 217° Southwest  Level Estimated
04:18AM 55.0061 16.5489 217° Southwest  Level Estimated
04:19AM 54.9097 16.4237 217° Southwest  Level Estimated
04:20AM 54.8133 16.2991 217° Southwest  Level Estimated
04:21AM 54.7166 16.1751 216° Southwest  Level Estimated
04:22AM 54.6199 16.0516 216° Southwest  Level Estimated
04:23AM 54.5230 15.9288 216° Southwest  Level Estimated
04:24AM 54.4260 15.8065 216° Southwest  Level Estimated
04:25AM 54.3289 15.6848 216° Southwest  Level Estimated
04:26AM 54.2317 15.5637 216° Southwest  Level Estimated
04:27AM 54.1343 15.4431 216° Southwest  Level Estimated
04:28AM 54.0369 15.3231 216° Southwest  Level Estimated
04:29AM 53.9393 15.2037 216° Southwest  Level Estimated
04:30AM 53.8416 15.0848 216° Southwest  Level Estimated
04:31AM 53.7437 14.9665 215° Southwest  Level Estimated
04:32AM 53.6458 14.8488 215° Southwest  Level Estimated
04:33AM 53.5477 14.7316 215° Southwest  Level Estimated
04:34AM 53.4496 14.6149 215° Southwest  Level Estimated
04:35AM 53.3513 14.4987 215° Southwest  Level Estimated
04:36AM 53.2529 14.3831 215° Southwest  Level Estimated
04:37AM 53.1544 14.2681 215° Southwest  Level Estimated
04:38AM 53.0558 14.1535 215° Southwest  Level Estimated
04:39AM 52.9570 14.0395 215° Southwest  Level Estimated
04:40AM 52.8582 13.9260 215° Southwest  Level Estimated
04:41AM 52.7593 13.8130 215° Southwest  Level Estimated
04:42AM 52.6602 13.7005 214° Southwest  Level Estimated
04:43AM 52.5610 13.5886 214° Southwest  Level Estimated
04:44AM 52.4618 13.4771 214° Southwest  Level Estimated
04:45AM 52.3624 13.3662 214° Southwest  Level Estimated
04:46AM 52.2629 13.2557 214° Southwest  Level Estimated
04:47AM 52.1634 13.1458 214° Southwest  Level Estimated
04:48AM 52.0637 13.0363 214° Southwest  Level Estimated
04:49AM 51.9639 12.9273 214° Southwest  Level Estimated
04:50AM 51.8640 12.8188 214° Southwest  Level Estimated
04:51AM 51.7641 12.7108 214° Southwest  Level Estimated
04:52AM 51.6640 12.6032 214° Southwest  Level Estimated
04:53AM 51.5638 12.4962 214° Southwest  Level Estimated
04:54AM 51.4635 12.3896 213° Southwest  Level Estimated
04:55AM 51.3632 12.2834 213° Southwest  Level Estimated
04:56AM 51.2627 12.1778 213° Southwest  Level Estimated
04:57AM 51.1622 12.0726 213° Southwest  Level Estimated
04:58AM 51.0615 11.9678 213° Southwest  Level Estimated
04:59AM 50.9608 11.8635 213° Southwest  Level Estimated
05:00AM 50.8599 11.7597 213° Southwest  Level Estimated
05:01AM 50.7590 11.6563 213° Southwest  Level Estimated
05:02AM 50.6580 11.5534 213° Southwest  Level Estimated
05:03AM 50.5569 11.4509 213° Southwest  Level Estimated
05:04AM 50.4557 11.3488 213° Southwest  Level Estimated
05:05AM 50.3544 11.2472 213° Southwest  Level Estimated
05:06AM 50.2530 11.1460 212° Southwest  Level Estimated
05:07AM 50.1516 11.0452 212° Southwest  Level Estimated
05:08AM 50.0500 10.9449 212° Southwest  Level Estimated
05:09AM 49.9484 10.8449 212° Southwest  Level Estimated
05:10AM 49.8467 10.7455 212° Southwest  Level Estimated
05:11AM 49.7449 10.6464 212° Southwest  Level Estimated
05:12AM 49.6430 10.5477 212° Southwest  Level Estimated
05:13AM 49.5410 10.4495 212° Southwest  Level Estimated
05:14AM 49.4389 10.3516 212° Southwest  Level Estimated
05:15AM 49.3368 10.2542 212° Southwest  Level Estimated
05:16AM 49.2346 10.1572 212° Southwest  Level Estimated
05:17AM 49.1323 10.0605 212° Southwest  Level Estimated
05:18AM 49.0299 9.9643 212° Southwest  Level Estimated
05:19AM 48.9274 9.8685 212° Southwest  Level Estimated
05:20AM 48.8249 9.7730 211° Southwest  Level Estimated
05:21AM 48.7223 9.6780 211° Southwest  Level Estimated
05:22AM 48.6196 9.5833 211° Southwest  Level Estimated
05:23AM 48.5168 9.4890 211° Southwest  Level Estimated
05:24AM 48.4140 9.3952 211° Southwest  Level Estimated
05:25AM 48.3110 9.3016 211° Southwest  Level Estimated
05:26AM 48.2080 9.2085 211° Southwest  Level Estimated
05:27AM 48.1050 9.1157 211° Southwest  Level Estimated
05:28AM 48.0018 9.0233 211° Southwest  Level Estimated
05:29AM 47.8986 8.9313 211° Southwest  Level Estimated
05:30AM 47.7953 8.8396 211° Southwest  Level Estimated
05:31AM 47.6919 8.7483 211° Southwest  Level Estimated
05:32AM 47.5885 8.6574 211° Southwest  Level Estimated
05:33AM 47.4850 8.5668 211° Southwest  Level Estimated
05:34AM 47.3814 8.4766 30° Northeast  Level Estimated
05:35AM 47.4850 8.5668 211° Southwest  Level Estimated
05:36AM 47.3814 8.4766 30° Northeast  Level Estimated
05:37AM 47.4850 8.5668 211° Southwest  Level Estimated
05:38AM 47.3814 8.4766 30° Northeast  Level Estimated
05:39AM 47.4850 8.5668 211° Southwest  Level Estimated
05:40AM 47.3814 8.4766 30° Northeast  Level Estimated
05:41AM 47.4850 8.5668 211° Southwest  Level Estimated
05:42AM 47.3814 8.4766 30° Northeast  Level Estimated
05:43AM 47.4850 8.5668 211° Southwest  Level Estimated
05:44AM 47.3814 8.4766 30° Northeast  Level Estimated
05:45AM 47.4850 8.5668 211° Southwest  Level Estimated
05:46AM 47.3814 8.4766 30° Northeast  Level Estimated
05:47AM 47.4850 8.5668 211° Southwest  Level Estimated
05:48AM 47.3814 8.4766 30° Northeast  Level Estimated
05:49AM 47.4850 8.5668 30° Northeast  Level Estimated